Kaiwo Maru — JMMU — position and weather

sailwx.info

Track history (hours):
 
Tides and Currents Weather Stations Pressure Air Temp Water Temp Dewpoint Dewpoint Depression Visibility Wind Speed Wind Dir Waves Ship Positions

Kaiwo Maru (Japan)

Built in 1989. Trains merchant marine cadets for Japan's National Institute for Sea Training.

Ship's website: http://www.kohkun.go.jp/en/ships/kaiwomaru.html

Last reported at 2020-Aug-04 09:15 UTC. Time now 2020-Aug-13 11:45 UTC.
Position N 34°11' E 134°56'.
Warning: this ship's position is 9 days out of date.

Length 110.1 m; beam 13.8 m; draft 6 m.

Type: Sailing vessel. MMSI: 431006000.

Date/timePositionNaut miles runAvg speedWind from/ knotsBaromVisibWave heightAir tempDewpointWater temp
2020-Aug-04 09:15N 34°11' E 134°56'3 8.6
2020-Aug-04 08:53N 34°14' E 134°58'3 8.7
2020-Aug-04 08:30N 34°18' E 134°58'26 4.4
2020-Aug-04 02:35N 34°41' E 135°12'0 0.0
2020-Aug-03 12:47N 34°41' E 135°12'0 0.0
2020-Aug-03 10:59N 34°41' E 135°12'0 0.0
2020-Aug-03 09:59N 34°41' E 135°12'0 0.0
2020-Aug-03 09:29N 34°41' E 135°12'0 0.0
2020-Aug-03 05:29N 34°41' E 135°12'0 0.0
2020-Aug-02 23:59N 34°41' E 135°12'0 0.0
2020-Aug-02 17:23N 34°41' E 135°12'0 0.0
2020-Aug-02 16:29N 34°41' E 135°12'0 0.0
2020-Aug-02 13:11N 34°41' E 135°12'0 0.0
2020-Aug-02 12:41N 34°41' E 135°12'0 0.0
2020-Aug-02 12:29N 34°41' E 135°12'0 0.0
2020-Aug-02 10:29N 34°41' E 135°12'0 0.0
2020-Aug-02 09:53N 34°41' E 135°12'0 0.0
2020-Aug-02 06:29N 34°41' E 135°12'0 0.0
2020-Aug-02 04:35N 34°41' E 135°12'0 0.5
2020-Aug-02 04:29N 34°41' E 135°12'0 0.1
2020-Aug-02 03:41N 34°41' E 135°12'0 0.0
2020-Aug-02 01:59N 34°41' E 135°12'0 0.0
2020-Aug-02 00:53N 34°41' E 135°12'0 0.0
2020-Aug-01 22:29N 34°41' E 135°12'0 0.0
2020-Aug-01 15:56N 34°41' E 135°12'0 0.0
2020-Aug-01 13:56N 34°41' E 135°12'0 0.0
2020-Aug-01 11:26N 34°41' E 135°12'0 0.0
2020-Aug-01 09:26N 34°41' E 135°12'0 0.0
2020-Aug-01 05:26N 34°41' E 135°12'0 0.0
2020-Aug-01 02:56N 34°41' E 135°12'0 0.0
2020-Aug-01 02:26N 34°41' E 135°12'0 0.0
2020-Aug-01 00:26N 34°41' E 135°12'0 0.0
2020-Jul-31 23:56N 34°41' E 135°12'0 0.0
2020-Jul-31 21:26N 34°41' E 135°12'0 0.0
2020-Jul-31 17:56N 34°41' E 135°12'0 0.0
2020-Jul-31 15:26N 34°41' E 135°12'0 0.0
2020-Jul-31 11:56N 34°41' E 135°12'0 0.0
2020-Jul-31 09:56N 34°41' E 135°12'0 0.0
2020-Jul-31 06:20N 34°41' E 135°12'0 0.1
2020-Jul-31 05:50N 34°41' E 135°12'0 0.0
2020-Jul-31 04:56N 34°41' E 135°12'0 0.1
2020-Jul-31 03:56N 34°41' E 135°12'0 0.0
2020-Jul-31 00:56N 34°41' E 135°12'0 0.0
2020-Jul-31 00:26N 34°41' E 135°12'0 0.0
2020-Jul-30 22:08N 34°41' E 135°12'0 0.0
2020-Jul-30 21:26N 34°41' E 135°12'0 0.0
2020-Jul-30 20:20N 34°41' E 135°12'0 0.0
2020-Jul-30 19:26N 34°41' E 135°12'0 0.0
2020-Jul-30 13:26N 34°41' E 135°12'0 0.0
2020-Jul-30 10:26N 34°41' E 135°12'0 0.0
2020-Jul-30 08:56N 34°41' E 135°12'0 0.0
2020-Jul-30 08:26N 34°41' E 135°12'6 2.3
2020-Jul-30 06:00N 34°36' E 135°15'18 8.9
2020-Jul-30 04:00N 34°35' E 134°54'26 0.5
2020-Jul-28 01:29N 34°25' E 134°25'9 0.2
2020-Jul-26 02:30N 34°28' E 134°34'  
Track history (hours):
 
Tides and Currents Weather Stations Pressure Air Temp Water Temp Dewpoint Dewpoint Depression Visibility Wind Speed Wind Dir Waves Ship Positions

Kaiwo Maru (Japan)

Built in 1989. Trains merchant marine cadets for Japan's National Institute for Sea Training.

Ship's website: http://www.kohkun.go.jp/en/ships/kaiwomaru.html

Last reported at 2020-Aug-04 09:15 UTC. Time now 2020-Aug-13 11:45 UTC.
Position N 34°11' E 134°56'.
Warning: this ship's position is 9 days out of date.

Length 110.1 m; beam 13.8 m; draft 6 m.

Type: Sailing vessel. MMSI: 431006000.

Date/timePositionNaut miles runAvg speedWind from/ knotsBaromVisibWave heightAir tempDewpointWater temp
2020-Aug-04 09:15N 34°11' E 134°56'3 8.6
2020-Aug-04 08:53N 34°14' E 134°58'3 8.7
2020-Aug-04 08:30N 34°18' E 134°58'26 4.4
2020-Aug-04 02:35N 34°41' E 135°12'0 0.0
2020-Aug-03 12:47N 34°41' E 135°12'0 0.0
2020-Aug-03 10:59N 34°41' E 135°12'0 0.0
2020-Aug-03 09:59N 34°41' E 135°12'0 0.0
2020-Aug-03 09:29N 34°41' E 135°12'0 0.0
2020-Aug-03 05:29N 34°41' E 135°12'0 0.0
2020-Aug-02 23:59N 34°41' E 135°12'0 0.0
2020-Aug-02 17:23N 34°41' E 135°12'0 0.0
2020-Aug-02 16:29N 34°41' E 135°12'0 0.0
2020-Aug-02 13:11N 34°41' E 135°12'0 0.0
2020-Aug-02 12:41N 34°41' E 135°12'0 0.0
2020-Aug-02 12:29N 34°41' E 135°12'0 0.0
2020-Aug-02 10:29N 34°41' E 135°12'0 0.0
2020-Aug-02 09:53N 34°41' E 135°12'0 0.0
2020-Aug-02 06:29N 34°41' E 135°12'0 0.0
2020-Aug-02 04:35N 34°41' E 135°12'0 0.5
2020-Aug-02 04:29N 34°41' E 135°12'0 0.1
2020-Aug-02 03:41N 34°41' E 135°12'0 0.0
2020-Aug-02 01:59N 34°41' E 135°12'0 0.0
2020-Aug-02 00:53N 34°41' E 135°12'0 0.0
2020-Aug-01 22:29N 34°41' E 135°12'0 0.0
2020-Aug-01 15:56N 34°41' E 135°12'0 0.0
2020-Aug-01 13:56N 34°41' E 135°12'0 0.0
2020-Aug-01 11:26N 34°41' E 135°12'0 0.0
2020-Aug-01 09:26N 34°41' E 135°12'0 0.0
2020-Aug-01 05:26N 34°41' E 135°12'0 0.0
2020-Aug-01 02:56N 34°41' E 135°12'0 0.0
2020-Aug-01 02:26N 34°41' E 135°12'0 0.0
2020-Aug-01 00:26N 34°41' E 135°12'0 0.0
2020-Jul-31 23:56N 34°41' E 135°12'0 0.0
2020-Jul-31 21:26N 34°41' E 135°12'0 0.0
2020-Jul-31 17:56N 34°41' E 135°12'0 0.0
2020-Jul-31 15:26N 34°41' E 135°12'0 0.0
2020-Jul-31 11:56N 34°41' E 135°12'0 0.0
2020-Jul-31 09:56N 34°41' E 135°12'0 0.0
2020-Jul-31 06:20N 34°41' E 135°12'0 0.1
2020-Jul-31 05:50N 34°41' E 135°12'0 0.0
2020-Jul-31 04:56N 34°41' E 135°12'0 0.1
2020-Jul-31 03:56N 34°41' E 135°12'0 0.0
2020-Jul-31 00:56N 34°41' E 135°12'0 0.0
2020-Jul-31 00:26N 34°41' E 135°12'0 0.0
2020-Jul-30 22:08N 34°41' E 135°12'0 0.0
2020-Jul-30 21:26N 34°41' E 135°12'0 0.0
2020-Jul-30 20:20N 34°41' E 135°12'0 0.0
2020-Jul-30 19:26N 34°41' E 135°12'0 0.0
2020-Jul-30 13:26N 34°41' E 135°12'0 0.0
2020-Jul-30 10:26N 34°41' E 135°12'0 0.0
2020-Jul-30 08:56N 34°41' E 135°12'0 0.0
2020-Jul-30 08:26N 34°41' E 135°12'6 2.3
2020-Jul-30 06:00N 34°36' E 135°15'18 8.9
2020-Jul-30 04:00N 34°35' E 134°54'26 0.5
2020-Jul-28 01:29N 34°25' E 134°25'9 0.2
2020-Jul-26 02:30N 34°28' E 134°34'  

Dump ship's entire track history